createdAt,value
2024-05-09T00:01:47.670Z,7.95
2024-05-09T00:05:29.947Z,7.78
2024-05-09T00:09:12.101Z,8.60
2024-05-09T00:12:54.256Z,8.03
2024-05-09T00:16:36.404Z,7.95
2024-05-09T00:20:24.425Z,7.72
2024-05-09T00:24:10.981Z,6.13
2024-05-09T00:27:53.060Z,7.00
2024-05-09T00:31:35.167Z,7.50
2024-05-09T00:35:17.437Z,7.60
2024-05-09T00:38:59.500Z,7.93
2024-05-09T00:42:41.604Z,7.68
2024-05-09T00:46:23.701Z,7.13
2024-05-09T00:50:10.139Z,7.57
2024-05-09T00:53:57.979Z,8.32
2024-05-09T00:57:40.175Z,8.20
2024-05-09T01:01:25.001Z,7.20
2024-05-09T01:05:07.918Z,7.18
2024-05-09T01:08:50.267Z,8.68
2024-05-09T01:12:32.449Z,8.90
2024-05-09T01:16:14.700Z,8.98
2024-05-09T01:19:56.964Z,9.50
2024-05-09T01:23:39.273Z,8.80
2024-05-09T01:27:21.546Z,9.07
2024-05-09T01:31:06.055Z,9.00
2024-05-09T01:34:48.189Z,8.55
2024-05-09T01:38:30.443Z,8.10
2024-05-09T01:42:12.640Z,8.10
2024-05-09T01:45:54.802Z,7.55
2024-05-09T01:49:37.811Z,7.88
2024-05-09T01:53:19.986Z,7.55
2024-05-09T01:57:02.082Z,6.95
2024-05-09T02:00:44.455Z,7.55
2024-05-09T02:04:26.733Z,7.87
2024-05-09T02:08:17.204Z,7.38
2024-05-09T02:12:00.082Z,8.05
2024-05-09T02:15:42.651Z,7.57
2024-05-09T02:19:24.845Z,7.65
2024-05-09T02:23:08.442Z,7.90
2024-05-09T02:26:50.671Z,8.37
2024-05-09T02:30:40.279Z,7.40
2024-05-09T02:34:24.113Z,7.95
2024-05-09T02:38:06.469Z,8.00
2024-05-09T02:41:48.671Z,7.93
2024-05-09T02:45:30.895Z,8.60
2024-05-09T02:49:13.284Z,8.27
2024-05-09T02:52:55.579Z,7.53
2024-05-09T02:56:37.729Z,7.97
2024-05-09T03:00:26.287Z,7.57
2024-05-09T03:04:16.669Z,8.90
2024-05-09T03:07:58.877Z,7.82
2024-05-09T03:11:41.194Z,7.82
2024-05-09T03:15:23.401Z,8.23
2024-05-09T03:19:05.795Z,7.10
2024-05-09T03:22:47.946Z,8.73
2024-05-09T03:26:30.172Z,8.68
2024-05-09T03:30:28.894Z,8.23
2024-05-09T03:34:17.810Z,8.73
2024-05-09T03:38:00.034Z,8.75
2024-05-09T03:41:42.272Z,9.90
2024-05-09T03:45:24.428Z,10.20
2024-05-09T03:49:06.976Z,10.50
2024-05-09T03:52:49.258Z,9.07
2024-05-09T03:56:31.482Z,9.23
2024-05-09T04:00:18.287Z,9.40
2024-05-09T04:04:09.676Z,9.63
2024-05-09T04:07:51.925Z,10.03
2024-05-09T04:11:34.261Z,10.13
2024-05-09T04:15:16.530Z,10.82
2024-05-09T04:18:58.723Z,10.23
2024-05-09T04:22:40.858Z,10.48
2024-05-09T04:26:23.171Z,10.23
2024-05-09T04:30:08.016Z,10.77
2024-05-09T04:33:54.509Z,10.23
2024-05-09T04:37:36.733Z,10.35
2024-05-09T04:41:18.917Z,9.57
2024-05-09T04:45:01.088Z,10.17
2024-05-09T04:53:05.103Z,11.43
2024-05-09T05:00:55.010Z,11.43
2024-05-09T05:05:23.143Z,11.73
2024-05-09T05:09:50.594Z,10.82
2024-05-09T05:14:15.119Z,10.63
2024-05-09T05:18:44.737Z,11.35
2024-05-09T05:31:15.590Z,11.40
2024-05-09T05:40:24.776Z,11.60
2024-05-09T05:44:45.409Z,11.23
2024-05-09T06:01:32.742Z,10.30
2024-05-09T06:15:05.139Z,10.37
2024-05-09T06:23:03.284Z,10.30
2024-05-09T06:32:05.904Z,9.95
2024-05-09T06:44:28.408Z,8.60
2024-05-09T06:48:56.593Z,9.15
2024-05-09T06:53:27.451Z,9.07
2024-05-09T07:02:28.624Z,8.55
2024-05-09T07:11:31.211Z,8.17
2024-05-09T07:20:34.552Z,7.43
2024-05-09T07:25:03.336Z,7.13
2024-05-09T07:29:30.315Z,6.53
2024-05-09T07:34:00.608Z,6.80
2024-05-09T07:38:24.021Z,7.03
2024-05-09T08:03:26.610Z,5.82
2024-05-09T08:15:55.387Z,5.97
2024-05-09T08:20:27.010Z,5.68
2024-05-09T08:29:10.616Z,5.10
2024-05-09T08:38:25.683Z,5.67
2024-05-09T08:42:53.559Z,4.93
2024-05-09T08:51:39.167Z,6.00
2024-05-09T09:17:31.605Z,5.50
2024-05-09T09:25:26.528Z,5.22
2024-05-09T09:42:18.595Z,5.35
2024-05-09T09:54:58.101Z,5.40
2024-05-09T09:59:13.746Z,4.90
2024-05-09T10:12:45.033Z,4.90
2024-05-09T10:16:56.686Z,4.15
2024-05-09T10:20:46.225Z,4.80
2024-05-09T10:25:07.985Z,5.20
2024-05-09T10:33:01.629Z,5.07
2024-05-09T10:37:30.021Z,4.40
2024-05-09T10:42:01.030Z,4.18
2024-05-09T10:46:42.749Z,4.30
2024-05-09T10:50:49.125Z,4.83
2024-05-09T10:54:41.436Z,4.45
2024-05-09T10:58:56.446Z,4.80
2024-05-09T11:21:26.327Z,3.70
2024-05-09T11:26:04.157Z,5.03
2024-05-09T11:30:35.450Z,4.05
2024-05-09T11:35:04.080Z,4.45
2024-05-09T11:39:27.993Z,4.18
2024-05-09T11:56:36.091Z,4.75
2024-05-09T12:00:50.988Z,4.60
2024-05-09T12:05:23.086Z,3.65
2024-05-09T12:13:22.738Z,4.50
2024-05-09T12:17:47.781Z,3.30
2024-05-09T12:22:17.395Z,4.35
2024-05-09T12:31:17.645Z,3.30
2024-05-09T12:52:40.246Z,4.38
2024-05-09T13:00:35.746Z,3.20
2024-05-09T13:05:04.800Z,3.60
2024-05-09T13:09:33.839Z,3.10
2024-05-09T13:17:28.203Z,3.58
2024-05-09T13:21:56.642Z,3.10
2024-05-09T13:30:12.060Z,3.33
2024-05-09T13:46:51.224Z,3.80
2024-05-09T13:55:52.972Z,3.73
2024-05-09T14:04:54.225Z,3.97
2024-05-09T14:18:26.496Z,3.15
2024-05-09T14:27:26.872Z,3.60
2024-05-09T14:50:06.874Z,3.13
2024-05-09T14:54:28.625Z,2.87
2024-05-09T15:02:30.147Z,3.40
2024-05-09T15:11:21.155Z,2.90
2024-05-09T15:35:00.956Z,3.72
2024-05-09T15:44:02.002Z,3.20
2024-05-09T15:53:01.040Z,3.28
2024-05-09T16:06:38.510Z,2.83
2024-05-09T16:11:03.640Z,3.13
2024-05-09T16:24:38.326Z,2.80
2024-05-09T16:50:32.584Z,2.92
2024-05-09T17:23:13.875Z,3.25
2024-05-09T17:31:08.341Z,3.33
2024-05-09T17:40:06.656Z,3.08
2024-05-09T17:53:41.945Z,3.35
2024-05-09T18:02:36.228Z,2.90
2024-05-09T18:11:36.626Z,3.10
2024-05-09T18:20:42.296Z,2.92
2024-05-09T18:25:07.034Z,2.55
2024-05-09T18:29:37.721Z,2.80
2024-05-09T18:38:35.927Z,2.58
2024-05-09T18:52:14.530Z,2.20
2024-05-09T19:11:15.076Z,2.75
2024-05-09T19:24:48.029Z,3.10
2024-05-09T19:32:42.233Z,4.25
2024-05-09T19:40:35.097Z,4.20
2024-05-09T19:48:17.901Z,3.70
2024-05-09T19:52:00.122Z,4.13
2024-05-09T19:55:42.638Z,4.50
2024-05-09T19:59:24.859Z,4.80
2024-05-09T20:03:07.442Z,4.35
2024-05-09T20:06:53.121Z,4.67
2024-05-09T20:10:36.489Z,4.55
2024-05-09T20:14:19.251Z,5.03
2024-05-09T20:18:01.669Z,5.17
2024-05-09T20:21:44.254Z,5.18
2024-05-09T20:25:26.489Z,4.75
2024-05-09T20:29:08.576Z,4.63
2024-05-09T20:32:50.838Z,5.55
2024-05-09T20:36:33.161Z,6.30
2024-05-09T20:40:21.653Z,5.65
2024-05-09T20:44:10.883Z,5.20
2024-05-09T20:47:53.477Z,5.97
2024-05-09T20:51:35.792Z,6.10
2024-05-09T20:55:18.099Z,6.10
2024-05-09T20:59:00.223Z,6.65
2024-05-09T21:02:43.933Z,7.60
2024-05-09T21:06:26.118Z,8.50
2024-05-09T21:10:15.525Z,8.32
2024-05-09T21:14:16.153Z,9.30
2024-05-09T21:18:04.462Z,9.23
2024-05-09T21:21:50.657Z,8.63
2024-05-09T21:25:34.116Z,9.77
2024-05-09T21:29:16.257Z,9.63
2024-05-09T21:32:58.471Z,9.90
2024-05-09T21:36:41.339Z,9.38
2024-05-09T21:40:30.761Z,9.60
2024-05-09T21:44:16.104Z,9.68
2024-05-09T21:47:58.863Z,9.63
2024-05-09T21:51:43.648Z,10.15
2024-05-09T21:55:25.856Z,9.73
2024-05-09T21:59:08.068Z,9.87
2024-05-09T22:02:50.237Z,10.20
2024-05-09T22:06:32.395Z,9.55
2024-05-09T22:10:22.758Z,9.90
2024-05-09T22:14:08.962Z,10.35
2024-05-09T22:17:51.940Z,10.45
2024-05-09T22:21:34.258Z,11.00
2024-05-09T22:25:16.527Z,10.93
2024-05-09T22:28:58.798Z,10.65
2024-05-09T22:32:41.134Z,10.98
2024-05-09T22:36:23.311Z,10.83
2024-05-09T22:40:10.858Z,10.45
2024-05-09T22:43:54.771Z,10.38
2024-05-09T22:47:37.256Z,9.90
2024-05-09T22:51:19.418Z,8.98
2024-05-09T22:55:01.713Z,10.05
2024-05-09T22:58:43.818Z,9.65
2024-05-09T23:02:26.138Z,9.77
2024-05-09T23:06:08.709Z,9.77
2024-05-09T23:09:50.906Z,10.00
2024-05-09T23:13:34.850Z,11.00
2024-05-09T23:17:17.244Z,11.50
2024-05-09T23:21:01.279Z,11.07
2024-05-09T23:24:43.484Z,11.70
2024-05-09T23:28:25.770Z,10.70
2024-05-09T23:32:09.643Z,11.35
2024-05-09T23:35:51.776Z,12.00
2024-05-09T23:39:34.449Z,11.52
2024-05-09T23:43:16.842Z,11.82
2024-05-09T23:46:59.035Z,11.23
2024-05-09T23:50:41.746Z,10.80
2024-05-09T23:54:24.064Z,11.73
2024-05-09T23:58:07.424Z,11.45
